La Puebla de Almoradiel, Spain
Current Conditions -  °F | °C
As of 11:00 AM on Friday 19 Dec 2014 (Local Time) from LEGT Reporting Station
Light Fog Light Fog  
Wind Chill: 39°   Ceiling: Unl
Heat Index: 39°   Visibility: 0.5mi
Dew Point: 39°   Wind: 0mph
Humidity: 100%   Direction: NA
Pressure: 30.45"   Gusts: NA
Location:  39.6°N, 3.12°W
Report Text: LEGT 191000Z 00000KT 0800 R05/1500 BCFG SCT002 04/04 Q1031
Loading
Personal Weather Stations






























Interactive Weather Map New forecast layout! Learn more

10-Day Weather Forecast

Advertisements
Track Severe Weather on mobile